Portada
METAR-TAF:

METAR-TAF

Aeroports :

Medina, Aràbia Saudita

latitud: 24-33N, longitud: 039-42E, altitud: 654 m

Observació

L'informe es va fer fa 56 minuts, a les 15:00 UTC
Vent 8 kt del Oest
Temperatura 26°C
Humitat 15%
Pressió 1014 hPa
Visibilitat 10 km o més
sense núvols per sota de 1500 mi sense presència de cumulonimbus.

METAR: OEMA 091500Z 26008KT CAVOK 26/M03 Q1014 NOSIG

Hora: 18:56 (15:56 UTC)

Pronòstic

L'informe es va fer fa 4 hores i 56 minuts, a les 11:00 UTC
Pronòstic vàlid del 09 a les 12 UTC al 10 a les 18 UTC
Vent 12 kt del Oest
Visibilitat 10 km o més
Escasses núvols a una alçada de 4500 ft
Evolucionant progressivament
l' 09 a les 18 UTC al 09 a les 20 UTC
Vent 3 kt amb direcció variable

TAF: OEMA 091100Z 0912/1018 26012KT 9999 FEW045 BECMG 0918/0920 VRB03KT

Observacions i pronòstics meteorològics de més de 4000 aeroports (METAR i TAF).

Les estacions disponibles són els punts grocs i vermells al mapa.

Posi el ratolí al punt desitjat per veure el nom de l'estació.

Feu clic per veure les observacions i els pronòstics meteorològics.

Per canviar el mapa: feu clic els botons verds amb una creu de color negre per apropar; al botó verd amb un guió per allunyar la imatge; o en les fletxes verdes per a mapes adjacents.


METAR-TAF: